EGSS

London Stansted Airport

London, United Kingdom
METAR EGSS 241420Z AUTO 07005KT 010V140 9999 NCD 23/10 Q1025
Observed Flight Rules
Jun-24 @ 14:20 UTC (40 minutes ago) Visual Flight Rules
Wind Visibility Clouds
70° at 5 knots 10,000+ meters
  • Clear skies
Temperatures Readings
Current 23°C / 73°F
Dewpoint 10°C / 50°F
Humidity 44%
Altimeter 30.27" Hg
Pressure 1025 hPa
Elevation 106
METAR EGSS 241420Z AUTO 07005KT 010V140 9999 NCD 23/10 Q1025
Observed Flight Rules
Jun-24 @ 14:20 UTC
(40 minutes ago)
VFR
Wind Visibility
70° at 5 knots 10,000+ meters
Clouds
  • Clear skies
Temperature Dewpoint
23°C / 73°F 10°C / 50°F
Humidity Altimeter Pressure
44% 30.27" Hg 1025 hPa